createdAt,value
2017-10-16T00:00:39.226Z,97.51
2017-10-16T00:01:39.217Z,97.71
2017-10-16T00:02:39.204Z,97.8
2017-10-16T00:03:39.197Z,97.89
2017-10-16T00:04:39.190Z,97.32
2017-10-16T00:05:39.184Z,97.46
2017-10-16T00:06:39.174Z,97.71
2017-10-16T00:07:39.167Z,97.51
2017-10-16T00:08:39.164Z,97.51
2017-10-16T00:09:39.151Z,97.51
2017-10-16T00:10:39.142Z,97.51
2017-10-16T00:11:38.803Z,97.71
2017-10-16T00:12:39.129Z,97.66
2017-10-16T00:13:39.120Z,97.66
2017-10-16T00:14:39.113Z,97.13
2017-10-16T00:15:39.107Z,97.17
2017-10-16T00:16:39.346Z,97.27
2017-10-16T00:17:39.094Z,97.75
2017-10-16T00:18:39.118Z,97.75
2017-10-16T00:19:38.739Z,97.66
2017-10-16T00:20:39.065Z,97.85
2017-10-16T00:21:39.058Z,97.94
2017-10-16T00:22:39.049Z,97.75
2017-10-16T00:23:39.041Z,97.56
2017-10-16T00:24:39.034Z,97.27
2017-10-16T00:25:38.693Z,97.56
2017-10-16T00:26:39.021Z,97.85
2017-10-16T00:27:39.010Z,97.85
2017-10-16T00:28:39.002Z,97.85
2017-10-16T00:29:38.998Z,97.85
2017-10-16T00:30:38.656Z,97.85
2017-10-16T00:31:38.981Z,97.85
2017-10-16T00:32:38.972Z,97.66
2017-10-16T00:33:38.631Z,97.94
2017-10-16T00:34:38.956Z,97.85
2017-10-16T00:35:38.947Z,97.85
2017-10-16T00:36:38.606Z,97.56
2017-10-16T00:37:38.934Z,97.94
2017-10-16T00:38:38.923Z,97.75
2017-10-16T00:39:38.916Z,97.75
2017-10-16T00:40:38.905Z,97.66
2017-10-16T00:41:38.896Z,97.66
2017-10-16T00:42:38.890Z,98.42
2017-10-16T00:43:38.881Z,97.56
2017-10-16T00:44:38.874Z,97.85
2017-10-16T00:45:38.532Z,97.94
2017-10-16T00:46:38.858Z,97.75
2017-10-16T00:47:38.853Z,97.94
2017-10-16T00:48:38.853Z,98.42
2017-10-16T00:49:38.837Z,97.85
2017-10-16T00:50:38.827Z,98.42
2017-10-16T00:51:38.485Z,98.13
2017-10-16T00:52:38.811Z,98.22
2017-10-16T00:53:38.800Z,98.22
2017-10-16T00:54:38.795Z,98.22
2017-10-16T00:55:38.791Z,98.42
2017-10-16T00:56:38.774Z,98.51
2017-10-16T00:57:38.770Z,98.42
2017-10-16T00:58:38.428Z,98.22
2017-10-16T00:59:38.760Z,98.18
2017-10-16T01:00:38.744Z,98.36
2017-10-16T01:01:38.734Z,98.18
2017-10-16T01:02:38.728Z,98.27
2017-10-16T01:03:38.718Z,98.27
2017-10-16T01:04:38.713Z,98.18
2017-10-16T01:05:38.705Z,98.18
2017-10-16T01:06:38.697Z,98.36
2017-10-16T01:07:38.683Z,98.18
2017-10-16T01:08:38.689Z,98.18
2017-10-16T01:09:38.676Z,98.36
2017-10-16T01:10:38.661Z,97.99
2017-10-16T01:11:38.652Z,98.18
2017-10-16T01:12:38.647Z,98.18
2017-10-16T01:13:38.643Z,98.18
2017-10-16T01:14:38.631Z,98.18
2017-10-16T01:15:38.623Z,98.27
2017-10-16T01:16:38.614Z,97.99
2017-10-16T01:17:38.607Z,98.36
2017-10-16T01:18:38.595Z,98.27
2017-10-16T01:19:38.594Z,98.36
2017-10-16T01:20:38.248Z,98.18
2017-10-16T01:21:38.568Z,97.99
2017-10-16T01:22:38.562Z,97.99
2017-10-16T01:23:38.564Z,98.46
2017-10-16T01:24:38.547Z,97.89
2017-10-16T01:25:38.538Z,97.99
2017-10-16T01:26:38.196Z,98.18
2017-10-16T01:27:38.525Z,97.99
2017-10-16T01:28:38.511Z,98.27
2017-10-16T01:29:38.169Z,98.18
2017-10-16T01:30:38.501Z,97.99
2017-10-16T01:31:38.493Z,98.18
2017-10-16T01:32:38.476Z,97.99
2017-10-16T01:33:38.140Z,97.89
2017-10-16T01:34:38.477Z,97.99
2017-10-16T01:35:38.453Z,98.18
2017-10-16T01:36:38.114Z,97.8
2017-10-16T01:37:38.440Z,98.18
2017-10-16T01:38:38.428Z,98.27
2017-10-16T01:39:38.419Z,97.89
2017-10-16T01:40:38.410Z,97.89
2017-10-16T01:41:38.407Z,97.8
2017-10-16T01:42:38.397Z,97.89
2017-10-16T01:43:38.057Z,97.89
2017-10-16T01:44:38.380Z,97.8
2017-10-16T01:45:38.370Z,97.89
2017-10-16T01:46:38.364Z,98.18
2017-10-16T01:47:38.355Z,98.08
2017-10-16T01:48:38.342Z,98.18
2017-10-16T01:49:38.333Z,98.27
2017-10-16T01:50:38.326Z,98.08
2017-10-16T01:51:38.320Z,98.18
2017-10-16T01:52:38.310Z,98.08
2017-10-16T01:53:38.303Z,98.36
2017-10-16T01:54:38.294Z,97.99
2017-10-16T01:55:38.281Z,97.99
2017-10-16T01:56:38.278Z,98.18
2017-10-16T01:57:38.266Z,97.99
2017-10-16T01:58:37.926Z,98.18
2017-10-16T01:59:38.252Z,98.18
2017-10-16T02:00:38.243Z,98.03
2017-10-16T02:01:38.232Z,98.18
2017-10-16T02:02:38.222Z,97.94
2017-10-16T02:03:38.213Z,98.22
2017-10-16T02:04:38.206Z,97.75
2017-10-16T02:05:38.197Z,98.03
2017-10-16T02:06:38.188Z,98.13
2017-10-16T02:07:38.179Z,98.18
2017-10-16T02:08:38.178Z,98.03
2017-10-16T02:09:38.163Z,98.22
2017-10-16T02:10:38.157Z,98.65
2017-10-16T02:11:38.146Z,98.51
2017-10-16T02:12:38.145Z,97.94
2017-10-16T02:13:38.132Z,98.41
2017-10-16T02:14:38.124Z,98.51
2017-10-16T02:15:38.113Z,98.41
2017-10-16T02:16:38.102Z,98.22
2017-10-16T02:17:38.097Z,98.03
2017-10-16T02:18:38.090Z,98.41
2017-10-16T02:19:38.080Z,98.51
2017-10-16T02:20:38.071Z,98.51
2017-10-16T02:21:38.318Z,99.18
2017-10-16T02:22:38.052Z,98.89
2017-10-16T02:23:38.044Z,99.27
2017-10-16T02:24:38.032Z,98.79
2017-10-16T02:25:38.023Z,99.08
2017-10-16T02:26:38.018Z,98.89
2017-10-16T02:27:38.007Z,98.99
2017-10-16T02:28:38.002Z,98.41
2017-10-16T02:29:37.990Z,98.99
2017-10-16T02:30:37.985Z,98.99
2017-10-16T02:31:37.640Z,98.41
2017-10-16T02:32:37.968Z,98.32
2017-10-16T02:33:37.993Z,98.99
2017-10-16T02:34:37.947Z,98.99
2017-10-16T02:35:37.949Z,99.18
2017-10-16T02:36:37.930Z,98.7
2017-10-16T02:37:37.588Z,99.08
2017-10-16T02:38:37.914Z,98.79
2017-10-16T02:39:37.904Z,98.99
2017-10-16T02:40:37.901Z,98.99
2017-10-16T02:41:37.886Z,99.08
2017-10-16T02:42:37.878Z,98.99
2017-10-16T02:43:37.877Z,99.08
2017-10-16T02:44:37.860Z,99.18
2017-10-16T02:45:37.861Z,99.18
2017-10-16T02:46:37.845Z,98.99
2017-10-16T02:47:37.840Z,99.08
2017-10-16T02:48:37.841Z,98.99
2017-10-16T02:49:37.818Z,98.99
2017-10-16T02:50:37.815Z,98.89
2017-10-16T02:51:37.799Z,98.89
2017-10-16T02:52:38.041Z,98.99
2017-10-16T02:53:37.787Z,98.79
2017-10-16T02:54:37.772Z,98.89
2017-10-16T02:55:37.766Z,98.89
2017-10-16T02:56:37.761Z,98.89
2017-10-16T02:57:37.745Z,98.99
2017-10-16T02:58:37.736Z,98.7
2017-10-16T02:59:37.729Z,98.79
2017-10-16T03:00:37.718Z,98.79
2017-10-16T03:01:37.711Z,99.08
2017-10-16T03:02:37.706Z,98.65
2017-10-16T03:03:37.690Z,98.89
2017-10-16T03:04:37.681Z,98.89
2017-10-16T03:05:37.343Z,98.65
2017-10-16T03:06:37.666Z,98.65
2017-10-16T03:07:37.663Z,98.89
2017-10-16T03:08:37.653Z,98.7
2017-10-16T03:09:37.641Z,98.65
2017-10-16T03:10:37.631Z,98.7
2017-10-16T03:11:37.624Z,98.65
2017-10-16T03:12:37.612Z,98.84
2017-10-16T03:13:37.603Z,98.84
2017-10-16T03:14:37.599Z,98.99
2017-10-16T03:15:37.587Z,98.7
2017-10-16T03:16:37.574Z,98.74
2017-10-16T03:17:37.581Z,98.74
2017-10-16T03:18:37.565Z,98.74
2017-10-16T03:19:37.552Z,98.84
2017-10-16T03:20:37.544Z,98.65
2017-10-16T03:21:37.536Z,98.65
2017-10-16T03:22:37.523Z,98.74
2017-10-16T03:23:37.765Z,98.65
2017-10-16T03:24:37.517Z,98.65
2017-10-16T03:25:37.496Z,98.65
2017-10-16T03:26:37.160Z,98.74
2017-10-16T03:27:37.482Z,98.74
2017-10-16T03:28:37.472Z,98.84
2017-10-16T03:29:37.462Z,98.65
2017-10-16T03:30:37.454Z,98.84
2017-10-16T03:31:37.445Z,98.55
2017-10-16T03:32:37.437Z,99.03
2017-10-16T03:33:37.427Z,98.94
2017-10-16T03:34:37.420Z,98.84
2017-10-16T03:35:37.410Z,98.55
2017-10-16T03:36:37.395Z,98.74
2017-10-16T03:37:37.391Z,98.65
2017-10-16T03:38:37.379Z,98.55
2017-10-16T03:39:37.370Z,98.65
2017-10-16T03:40:37.360Z,98.55
2017-10-16T03:41:37.351Z,98.74
2017-10-16T03:42:37.347Z,98.65
2017-10-16T03:43:37.339Z,98.65
2017-10-16T03:44:37.324Z,98.55
2017-10-16T03:45:37.314Z,98.74
2017-10-16T03:46:37.307Z,98.65
2017-10-16T03:47:37.300Z,98.65
2017-10-16T03:48:37.289Z,98.55
2017-10-16T03:49:37.282Z,98.84
2017-10-16T03:50:37.273Z,98.55
2017-10-16T03:51:37.260Z,98.46
2017-10-16T03:52:37.259Z,98.65
2017-10-16T03:53:37.249Z,98.74
2017-10-16T03:54:37.487Z,98.84
2017-10-16T03:55:37.225Z,98.55
2017-10-16T03:56:37.219Z,98.55
2017-10-16T03:57:37.211Z,98.46
2017-10-16T03:58:37.202Z,99.22
2017-10-16T03:59:37.190Z,99.03
2017-10-16T04:00:37.183Z,98.74
2017-10-16T04:01:37.174Z,99.13
2017-10-16T04:02:36.831Z,99.13
2017-10-16T04:03:37.155Z,99.13
2017-10-16T04:04:37.141Z,99.13
2017-10-16T04:05:37.134Z,98.55
2017-10-16T04:06:37.134Z,99.13
2017-10-16T04:07:36.786Z,98.84
2017-10-16T04:08:37.105Z,99.22
2017-10-16T04:09:36.764Z,98.74
2017-10-16T04:10:37.089Z,99.22
2017-10-16T04:11:37.085Z,99.13
2017-10-16T04:12:37.082Z,99.13
2017-10-16T04:13:37.065Z,98.74
2017-10-16T04:14:37.053Z,99.03
2017-10-16T04:15:36.709Z,99.22
2017-10-16T04:16:37.036Z,98.74
2017-10-16T04:17:37.024Z,99.13
2017-10-16T04:18:36.685Z,99.13
2017-10-16T04:19:37.013Z,99.03
2017-10-16T04:20:37.004Z,99.03
2017-10-16T04:21:36.989Z,98.65
2017-10-16T04:22:36.977Z,99.13
2017-10-16T04:23:36.973Z,98.65
2017-10-16T04:24:36.960Z,99.13
2017-10-16T04:25:36.956Z,99.03
2017-10-16T04:26:36.943Z,98.84
2017-10-16T04:27:36.933Z,98.55
2017-10-16T04:28:36.923Z,98.46
2017-10-16T04:29:36.916Z,98.46
2017-10-16T04:30:36.574Z,98.46
2017-10-16T04:31:36.910Z,98.55
2017-10-16T04:32:36.560Z,98.74
2017-10-16T04:33:36.877Z,98.84
2017-10-16T04:34:36.869Z,98.94
2017-10-16T04:35:36.862Z,98.84
2017-10-16T04:36:36.851Z,98.36
2017-10-16T04:37:36.839Z,98.74
2017-10-16T04:38:36.835Z,98.74
2017-10-16T04:39:36.824Z,98.55
2017-10-16T04:40:36.812Z,98.55
2017-10-16T04:41:36.807Z,98.65
2017-10-16T04:42:36.795Z,98.55
2017-10-16T04:43:36.786Z,98.6
2017-10-16T04:44:36.778Z,98.51
2017-10-16T04:45:36.769Z,98.6
2017-10-16T04:46:36.764Z,98.51
2017-10-16T04:47:36.420Z,98.51
2017-10-16T04:48:36.744Z,98.6
2017-10-16T04:49:36.736Z,98.51
2017-10-16T04:50:36.726Z,98.79
2017-10-16T04:51:36.714Z,98.79
2017-10-16T04:52:36.708Z,98.51
2017-10-16T04:53:36.699Z,98.89
2017-10-16T04:54:36.698Z,98.32
2017-10-16T04:55:36.681Z,98.79
2017-10-16T04:56:36.674Z,98.7
2017-10-16T04:57:36.670Z,98.7
2017-10-16T04:58:36.656Z,99.08
2017-10-16T04:59:36.646Z,98.7
2017-10-16T05:00:36.650Z,98.6
2017-10-16T05:01:36.631Z,99.08
2017-10-16T05:02:36.619Z,98.89
2017-10-16T05:03:36.608Z,99.08
2017-10-16T05:04:36.267Z,98.89
2017-10-16T05:05:36.257Z,98.89
2017-10-16T05:06:36.582Z,98.79
2017-10-16T05:07:36.576Z,98.7
2017-10-16T05:08:36.234Z,99.08
2017-10-16T05:09:36.759Z,98.79
2017-10-16T05:10:36.214Z,99.08
2017-10-16T05:11:36.536Z,99.08
2017-10-16T05:12:36.527Z,99.08
2017-10-16T05:13:36.524Z,98.89
2017-10-16T05:14:36.512Z,98.94
2017-10-16T05:15:36.506Z,98.32
2017-10-16T05:16:36.496Z,98.41
2017-10-16T05:17:36.488Z,98.56
2017-10-16T05:18:36.476Z,98.56
2017-10-16T05:19:36.469Z,98.32
2017-10-16T05:20:36.458Z,98.51
2017-10-16T05:21:36.452Z,98.51
2017-10-16T05:22:36.465Z,98.32
2017-10-16T05:23:36.100Z,98.51
2017-10-16T05:24:36.427Z,98.56
2017-10-16T05:25:36.417Z,98.56
2017-10-16T05:26:36.406Z,98.36
2017-10-16T05:27:36.067Z,98.56
2017-10-16T05:28:36.059Z,98.56
2017-10-16T05:29:36.390Z,98.65
2017-10-16T05:30:36.039Z,97.99
2017-10-16T05:31:36.031Z,98.18
2017-10-16T05:32:36.355Z,98.56
2017-10-16T05:33:36.343Z,98.56
2017-10-16T05:34:36.342Z,98.65
2017-10-16T05:35:36.330Z,97.99
2017-10-16T05:36:36.320Z,97.89
2017-10-16T05:37:36.314Z,97.89
2017-10-16T05:38:36.302Z,97.99
2017-10-16T05:39:36.294Z,97.99
2017-10-16T05:40:36.291Z,97.8
2017-10-16T05:41:36.276Z,97.99
2017-10-16T05:42:36.276Z,98.18
2017-10-16T05:43:36.260Z,98.08
2017-10-16T05:44:36.252Z,97.61
2017-10-16T05:45:36.245Z,97.99
2017-10-16T05:46:36.236Z,97.99
2017-10-16T05:47:36.225Z,97.61
2017-10-16T05:48:36.215Z,97.89
2017-10-16T05:49:35.874Z,97.8
2017-10-16T05:50:36.201Z,97.89
2017-10-16T05:51:36.194Z,98.18
2017-10-16T05:52:35.849Z,98.18
2017-10-16T05:53:36.191Z,98.18
2017-10-16T05:54:36.167Z,98.36
2017-10-16T05:55:36.164Z,98.18
2017-10-16T05:56:36.149Z,98.08
2017-10-16T05:57:36.141Z,98.18
2017-10-16T05:58:36.134Z,98.08
2017-10-16T05:59:36.378Z,98.22
2017-10-16T06:00:36.116Z,98.22
2017-10-16T06:01:36.106Z,98.03
2017-10-16T06:02:36.101Z,98.22
2017-10-16T06:03:36.090Z,98.22
2017-10-16T06:04:36.084Z,98.03
2017-10-16T06:05:35.745Z,98.22
2017-10-16T06:06:36.069Z,98.22
2017-10-16T06:07:36.062Z,98.22
2017-10-16T06:08:36.051Z,98.22
2017-10-16T06:09:36.044Z,97.85
2017-10-16T06:10:36.034Z,97.94
2017-10-16T06:11:36.025Z,97.75
2017-10-16T06:12:36.019Z,97.71
2017-10-16T06:13:36.013Z,97.71
2017-10-16T06:14:36.004Z,97.51
2017-10-16T06:15:35.998Z,97.71
2017-10-16T06:16:35.991Z,97.32
2017-10-16T06:17:35.984Z,97.56
2017-10-16T06:18:35.977Z,97.18
2017-10-16T06:19:35.968Z,97.18
2017-10-16T06:20:35.957Z,96.89
2017-10-16T06:21:35.952Z,97.47
2017-10-16T06:22:35.947Z,97.23
2017-10-16T06:23:35.942Z,97.03
2017-10-16T06:24:35.933Z,97.13
2017-10-16T06:25:35.925Z,97.13
2017-10-16T06:26:35.919Z,97.18
2017-10-16T06:27:35.921Z,97.28
2017-10-16T06:28:35.902Z,96.99
2017-10-16T06:29:35.565Z,96.7
2017-10-16T06:30:36.154Z,96.99
2017-10-16T06:31:35.888Z,97.04
2017-10-16T06:32:35.884Z,97.23
2017-10-16T06:33:35.876Z,97.04
2017-10-16T06:34:35.873Z,96.75
2017-10-16T06:35:35.862Z,96.94
2017-10-16T06:36:35.857Z,96.75
2017-10-16T06:37:35.522Z,96.8
2017-10-16T06:38:35.517Z,96.8
2017-10-16T06:39:35.843Z,96.7
2017-10-16T06:40:35.838Z,96.22
2017-10-16T06:41:35.836Z,96.42
2017-10-16T06:42:35.830Z,96.47
2017-10-16T06:43:35.830Z,96.56
2017-10-16T06:44:35.821Z,96.66
2017-10-16T06:45:35.815Z,96.08
2017-10-16T06:46:35.813Z,96.08
2017-10-16T06:47:35.815Z,96.47
2017-10-16T06:48:35.804Z,96.08
2017-10-16T06:49:35.793Z,96.37
2017-10-16T06:50:35.797Z,96.37
2017-10-16T06:51:35.787Z,96.27
2017-10-16T06:52:35.783Z,96.61
2017-10-16T06:53:35.782Z,96.8
2017-10-16T06:54:35.776Z,96.51
2017-10-16T06:55:35.769Z,96.51
2017-10-16T06:56:35.769Z,96.51
2017-10-16T06:57:35.770Z,96.7
2017-10-16T06:58:35.763Z,96.51
2017-10-16T06:59:35.754Z,96.32
2017-10-16T07:00:35.419Z,96.32
2017-10-16T07:01:35.668Z,96.42
2017-10-16T07:02:35.745Z,96.37
2017-10-16T07:03:35.744Z,96.32
2017-10-16T07:04:35.741Z,96.56
2017-10-16T07:05:35.735Z,96.47
2017-10-16T07:06:35.731Z,96.18
2017-10-16T07:07:35.727Z,96.47
2017-10-16T07:08:35.726Z,96.94
2017-10-16T07:09:35.718Z,96.47
2017-10-16T07:10:35.719Z,96.75
2017-10-16T07:11:35.714Z,97.23
2017-10-16T07:12:35.377Z,96.56
2017-10-16T07:13:35.709Z,96.66
2017-10-16T07:14:35.705Z,96.27
2017-10-16T07:15:35.701Z,96.94
2017-10-16T07:16:35.694Z,96.84
2017-10-16T07:17:35.691Z,96.47
2017-10-16T07:18:35.700Z,96.94
2017-10-16T07:19:35.357Z,96.75
2017-10-16T07:20:35.685Z,96.84
2017-10-16T07:21:35.682Z,96.18
2017-10-16T07:22:35.677Z,96.37
2017-10-16T07:23:35.673Z,96.84
2017-10-16T07:24:35.672Z,96.37
2017-10-16T07:25:35.666Z,96.94
2017-10-16T07:26:35.668Z,96.84
2017-10-16T07:27:35.665Z,96.75
2017-10-16T07:28:35.662Z,96.75
2017-10-16T07:29:35.666Z,97.42
2017-10-16T07:30:35.658Z,97.52
2017-10-16T07:31:35.324Z,97.33
2017-10-16T07:32:35.900Z,97.52
2017-10-16T07:33:35.645Z,97.42
2017-10-16T07:34:35.645Z,97.04
2017-10-16T07:35:35.640Z,97.42
2017-10-16T07:36:35.636Z,96.61
2017-10-16T07:37:35.631Z,96.61
2017-10-16T07:38:35.631Z,96.89
2017-10-16T07:39:35.627Z,97.28
2017-10-16T07:40:35.636Z,96.7
2017-10-16T07:41:35.620Z,96.61
2017-10-16T07:42:35.616Z,96.89
2017-10-16T07:43:35.633Z,97.09
2017-10-16T07:44:35.274Z,97.18
2017-10-16T07:45:35.598Z,97.28
2017-10-16T07:46:35.596Z,97.18
2017-10-16T07:47:35.794Z,97.47
2017-10-16T07:48:35.592Z,97.09
2017-10-16T07:49:35.256Z,97.18
2017-10-16T07:50:35.583Z,97.28
2017-10-16T07:51:35.577Z,97.42
2017-10-16T07:52:35.243Z,96.99
2017-10-16T07:53:35.582Z,97.04
2017-10-16T07:54:35.578Z,96.89
2017-10-16T07:55:35.561Z,96.94
2017-10-16T07:56:35.557Z,97.52
2017-10-16T07:57:35.757Z,97.13
2017-10-16T07:58:35.556Z,97.52
2017-10-16T07:59:35.543Z,97.61
2017-10-16T08:00:35.538Z,97.71
2017-10-16T08:01:35.202Z,97.61
2017-10-16T08:02:35.530Z,97.9
2017-10-16T08:03:35.526Z,98
2017-10-16T08:04:35.517Z,97.8
2017-10-16T08:05:35.511Z,97.8
2017-10-16T08:06:35.509Z,97.61
2017-10-16T08:07:35.507Z,97.61
2017-10-16T08:08:35.163Z,97.52
2017-10-16T08:09:35.493Z,97.61
2017-10-16T08:10:35.486Z,97.52
2017-10-16T08:11:35.485Z,97.52
2017-10-16T08:12:35.490Z,97.42
2017-10-16T08:13:35.469Z,97.66
2017-10-16T08:14:35.468Z,97.52
2017-10-16T08:15:35.463Z,97.42
2017-10-16T08:16:35.462Z,97.52
2017-10-16T08:17:35.121Z,97.61
2017-10-16T08:18:35.113Z,98
2017-10-16T08:19:35.438Z,97.47
2017-10-16T08:20:35.435Z,97.85
2017-10-16T08:21:35.432Z,97.47
2017-10-16T08:22:35.428Z,97.38
2017-10-16T08:23:35.420Z,97.28
2017-10-16T08:24:35.418Z,97.38
2017-10-16T08:25:35.411Z,97.38
2017-10-16T08:26:35.407Z,97.28
2017-10-16T08:27:35.402Z,97.47
2017-10-16T08:28:35.063Z,97.38
2017-10-16T08:29:35.058Z,97.38
2017-10-16T08:30:35.385Z,97.18
2017-10-16T08:31:35.382Z,97.28
2017-10-16T08:32:35.379Z,97.47
2017-10-16T08:33:35.391Z,97.28
2017-10-16T08:34:35.364Z,97.47
2017-10-16T08:35:35.563Z,96.8
2017-10-16T08:36:35.358Z,96.7
2017-10-16T08:37:35.352Z,96.84
2017-10-16T08:38:35.343Z,96.99
2017-10-16T08:39:35.540Z,97.04
2017-10-16T08:40:35.337Z,96.84
2017-10-16T08:41:35.327Z,96.75
2017-10-16T08:42:34.992Z,96.94
2017-10-16T08:43:35.322Z,96.75
2017-10-16T08:44:35.314Z,97.23
2017-10-16T08:45:35.315Z,97.23
2017-10-16T08:46:35.309Z,96.56
2017-10-16T08:47:34.968Z,96.47
2017-10-16T08:48:35.297Z,96.56
2017-10-16T08:49:35.294Z,96.47
2017-10-16T08:50:35.288Z,96.56
2017-10-16T08:51:35.279Z,96.37
2017-10-16T08:52:35.276Z,96.37
2017-10-16T08:53:35.386Z,97.14
2017-10-16T08:54:35.268Z,96.47
2017-10-16T08:55:35.480Z,96.75
2017-10-16T08:56:35.256Z,96.42
2017-10-16T08:57:35.257Z,96.42
2017-10-16T08:58:34.915Z,96.42
2017-10-16T08:59:35.244Z,96.51
2017-10-16T09:00:35.249Z,96.13
2017-10-16T09:01:35.231Z,96.61
2017-10-16T09:02:35.231Z,96.51
2017-10-16T09:03:35.223Z,96.51
2017-10-16T09:04:34.885Z,96.61
2017-10-16T09:05:35.215Z,96.8
2017-10-16T09:06:35.207Z,96.42
2017-10-16T09:07:35.208Z,96.8
2017-10-16T09:08:35.422Z,96.61
2017-10-16T09:09:35.192Z,96.32
2017-10-16T09:10:35.190Z,96.47
2017-10-16T09:11:34.854Z,96.61
2017-10-16T09:12:35.569Z,96.75
2017-10-16T09:13:34.846Z,96.66
2017-10-16T09:14:35.170Z,96.66
2017-10-16T09:15:35.166Z,95.89
2017-10-16T09:16:35.369Z,96.27
2017-10-16T09:17:34.829Z,96.08
2017-10-16T09:18:34.822Z,96.47
2017-10-16T09:19:34.821Z,96.56
2017-10-16T09:20:35.819Z,96.47
2017-10-16T09:21:35.149Z,96.18
2017-10-16T09:22:35.136Z,96.27
2017-10-16T09:23:35.136Z,96.47
2017-10-16T09:24:34.796Z,95.98
2017-10-16T09:25:35.130Z,96.13
2017-10-16T09:26:35.119Z,96.08
2017-10-16T09:27:34.784Z,96.13
2017-10-16T09:28:35.115Z,96.03
2017-10-16T09:29:35.106Z,95.94
2017-10-16T09:30:34.769Z,96.61
2017-10-16T09:31:34.764Z,96.13
2017-10-16T09:32:35.093Z,96.32
2017-10-16T09:33:35.092Z,95.65
2017-10-16T09:34:35.094Z,96.32
2017-10-16T09:35:35.083Z,95.75
2017-10-16T09:36:35.075Z,95.84
2017-10-16T09:37:34.742Z,95.84
2017-10-16T09:38:35.069Z,95.21
2017-10-16T09:39:35.062Z,95.36
2017-10-16T09:40:34.729Z,95.5
2017-10-16T09:41:34.768Z,96.08
2017-10-16T09:42:35.052Z,95.7
2017-10-16T09:43:34.716Z,95.41
2017-10-16T09:44:35.045Z,95.21
2017-10-16T09:45:35.042Z,96.08
2017-10-16T09:46:35.038Z,95.89
2017-10-16T09:47:35.032Z,95.98
2017-10-16T09:48:35.453Z,95.89
2017-10-16T09:49:35.024Z,95.5
2017-10-16T09:50:35.019Z,96.18
2017-10-16T09:51:35.022Z,95.21
2017-10-16T09:52:35.015Z,96.08
2017-10-16T09:53:35.013Z,95.89
2017-10-16T09:54:35.005Z,95.75
2017-10-16T09:55:35.008Z,96.22
2017-10-16T09:56:34.997Z,95.17
2017-10-16T09:57:34.990Z,95.26
2017-10-16T09:58:34.999Z,95.45
2017-10-16T09:59:34.989Z,95.17
2017-10-16T10:00:34.979Z,95.36
2017-10-16T10:01:34.979Z,94.69
2017-10-16T10:02:34.975Z,95.07
2017-10-16T10:03:34.975Z,94.88
2017-10-16T10:04:34.966Z,95.65
2017-10-16T10:05:34.630Z,95.07
2017-10-16T10:06:34.967Z,94.45
2017-10-16T10:07:34.962Z,94.83
2017-10-16T10:08:34.956Z,94.35
2017-10-16T10:09:34.949Z,94.06
2017-10-16T10:10:34.949Z,94.64
2017-10-16T10:11:34.942Z,95.03
2017-10-16T10:12:34.608Z,95.21
2017-10-16T10:13:35.188Z,95.12
2017-10-16T10:14:34.930Z,95.03
2017-10-16T10:15:34.933Z,94.45
2017-10-16T10:16:34.926Z,95.17
2017-10-16T10:17:34.928Z,94.49
2017-10-16T10:18:34.923Z,94.88
2017-10-16T10:19:34.916Z,94.68
2017-10-16T10:20:34.913Z,94.49
2017-10-16T10:21:34.912Z,94.88
2017-10-16T10:22:34.925Z,94.49
2017-10-16T10:23:34.906Z,94.01
2017-10-16T10:24:34.899Z,93.82
2017-10-16T10:25:34.893Z,93.53
2017-10-16T10:26:34.560Z,93.91
2017-10-16T10:27:34.886Z,94.3
2017-10-16T10:28:34.888Z,94.3
2017-10-16T10:29:34.888Z,94.4
2017-10-16T10:30:34.547Z,94.64
2017-10-16T10:31:34.546Z,94.54
2017-10-16T10:32:34.541Z,94.35
2017-10-16T10:33:34.871Z,94.15
2017-10-16T10:34:34.864Z,93.48
2017-10-16T10:35:34.865Z,93.77
2017-10-16T10:36:34.529Z,93.1
2017-10-16T10:37:34.854Z,93.68
2017-10-16T10:38:34.868Z,93.1
2017-10-16T10:39:35.655Z,92.71
2017-10-16T10:40:34.851Z,92.43
2017-10-16T10:41:34.858Z,93.05
2017-10-16T10:42:34.845Z,93.43
2017-10-16T10:43:34.840Z,92.33
2017-10-16T10:44:35.093Z,92.28
2017-10-16T10:45:34.834Z,92.18
2017-10-16T10:46:34.834Z,91.41
2017-10-16T10:47:34.497Z,92.18
2017-10-16T10:48:34.493Z,91.7
2017-10-16T10:49:34.826Z,91.89
2017-10-16T10:50:34.825Z,92.38
2017-10-16T10:51:34.820Z,91.51
2017-10-16T10:52:34.813Z,90.35
2017-10-16T10:53:34.827Z,89.78
2017-10-16T10:54:34.816Z,89.87
2017-10-16T10:55:34.808Z,90.4
2017-10-16T10:56:34.472Z,90.5
2017-10-16T10:57:34.809Z,90.5
2017-10-16T10:58:34.491Z,90.69
2017-10-16T10:59:34.793Z,90.5
2017-10-16T11:00:34.793Z,90.78
2017-10-16T11:01:34.457Z,89.82
2017-10-16T11:02:34.792Z,89.82
2017-10-16T11:03:34.784Z,89.92
2017-10-16T11:04:34.452Z,89.72
2017-10-16T11:05:34.790Z,90.11
2017-10-16T11:06:34.779Z,90.3
2017-10-16T11:07:34.801Z,90.78
2017-10-16T11:08:34.773Z,90.88
2017-10-16T11:09:34.767Z,89.86
2017-10-16T11:10:34.776Z,90.25
2017-10-16T11:11:34.767Z,89.96
2017-10-16T11:12:34.433Z,89.96
2017-10-16T11:13:34.763Z,89.29
2017-10-16T11:14:34.767Z,89.48
2017-10-16T11:15:34.757Z,89.67
2017-10-16T11:16:34.755Z,89.77
2017-10-16T11:17:34.761Z,89.86
2017-10-16T11:18:34.749Z,89.48
2017-10-16T11:19:34.761Z,89.48
2017-10-16T11:20:34.748Z,89.19
2017-10-16T11:21:34.410Z,89.58
2017-10-16T11:22:34.740Z,89.39
2017-10-16T11:23:34.735Z,89.19
2017-10-16T11:24:34.742Z,88.81
2017-10-16T11:25:34.744Z,89.58
2017-10-16T11:26:34.730Z,89
2017-10-16T11:27:34.728Z,88.81
2017-10-16T11:28:34.727Z,88.61
2017-10-16T11:29:34.726Z,88.32
2017-10-16T11:30:34.722Z,88.46
2017-10-16T11:31:34.724Z,88.65
2017-10-16T11:32:34.718Z,88.75
2017-10-16T11:33:34.718Z,88.46
2017-10-16T11:34:34.382Z,88.65
2017-10-16T11:35:34.712Z,89.14
2017-10-16T11:36:34.712Z,88.85
2017-10-16T11:37:34.374Z,88.85
2017-10-16T11:38:34.380Z,88.75
2017-10-16T11:39:34.706Z,88.85
2017-10-16T11:40:34.702Z,88.56
2017-10-16T11:41:34.370Z,88.17
2017-10-16T11:42:34.699Z,87.88
2017-10-16T11:43:34.711Z,88.08
2017-10-16T11:44:34.693Z,87.7
2017-10-16T11:45:34.689Z,87.7
2017-10-16T11:46:34.358Z,88.17
2017-10-16T11:47:34.691Z,88.17
2017-10-16T11:48:34.687Z,87.83
2017-10-16T11:49:34.887Z,88.41
2017-10-16T11:50:35.057Z,88.46
2017-10-16T11:51:34.346Z,88.51
2017-10-16T11:52:34.884Z,88.6
2017-10-16T11:53:34.905Z,88.6
2017-10-16T11:54:34.673Z,88.79
2017-10-16T11:55:34.875Z,88.51
2017-10-16T11:56:34.674Z,88.22
2017-10-16T11:57:34.336Z,88.31
2017-10-16T11:58:34.669Z,88.12
2017-10-16T11:59:34.670Z,87.74
2017-10-16T12:00:34.666Z,86.68
2017-10-16T12:01:34.890Z,87.83
2017-10-16T12:02:34.674Z,87.54
2017-10-16T12:03:34.660Z,87.54
2017-10-16T12:04:34.656Z,87.64
2017-10-16T12:05:34.658Z,87.64
2017-10-16T12:06:34.656Z,87.45
2017-10-16T12:07:34.620Z,87.54
2017-10-16T12:08:34.649Z,88.22
2017-10-16T12:09:34.650Z,87.16
2017-10-16T12:10:34.645Z,87.45
2017-10-16T12:11:34.646Z,87.93
2017-10-16T12:12:34.843Z,87.54
2017-10-16T12:13:34.639Z,87.35
2017-10-16T12:14:34.641Z,87.2
2017-10-16T12:15:34.314Z,87.68
2017-10-16T12:16:34.304Z,87.54
2017-10-16T12:17:34.633Z,87.68
2017-10-16T12:18:34.635Z,87.2
2017-10-16T12:19:34.632Z,86.82
2017-10-16T12:20:34.630Z,87.49
2017-10-16T12:21:34.299Z,86.91
2017-10-16T12:22:34.850Z,87.49
2017-10-16T12:23:34.622Z,87.68
2017-10-16T12:24:34.623Z,87.49
2017-10-16T12:25:34.622Z,87.49
2017-10-16T12:26:34.287Z,87.78
2017-10-16T12:27:34.286Z,87.4
2017-10-16T12:28:34.291Z,87.78
2017-10-16T12:29:34.619Z,87.59
2017-10-16T12:30:34.282Z,87.4
2017-10-16T12:31:34.280Z,87.4
2017-10-16T12:32:34.610Z,87.59
2017-10-16T12:33:34.610Z,87.45
2017-10-16T12:34:34.611Z,86.82
2017-10-16T12:35:34.607Z,87.59
2017-10-16T12:36:34.608Z,86.91
2017-10-16T12:37:34.605Z,86.91
2017-10-16T12:38:34.605Z,87.49
2017-10-16T12:39:34.611Z,87.78
2017-10-16T12:40:34.606Z,87.01
2017-10-16T12:41:34.600Z,87.2
2017-10-16T12:42:34.598Z,87.01
2017-10-16T12:43:34.596Z,87.1
2017-10-16T12:44:34.593Z,87.2
2017-10-16T12:45:34.591Z,87.01
2017-10-16T12:46:34.258Z,86.72
2017-10-16T12:47:34.589Z,86.72
2017-10-16T12:48:34.591Z,86.52
2017-10-16T12:49:34.590Z,86.62
2017-10-16T12:50:34.589Z,86.62
2017-10-16T12:51:34.584Z,86.43
2017-10-16T12:52:34.586Z,86.52
2017-10-16T12:53:34.578Z,87.3
2017-10-16T12:54:34.580Z,87.01